sensor_id;sensor_type;location;lat;lon;timestamp;P1;P2;P0
67376;PMS7003;54261;46.086;6.588;2023-12-07T00:02:18;1.00;1.00;0.50
67376;PMS7003;54261;46.086;6.588;2023-12-07T00:07:20;0.25;0.00;0.00
67376;PMS7003;54261;46.086;6.588;2023-12-07T00:12:22;1.50;1.50;1.00
67376;PMS7003;54261;46.086;6.588;2023-12-07T00:17:24;0.75;0.75;0.75
67376;PMS7003;54261;46.086;6.588;2023-12-07T00:22:26;0.75;0.75;0.50
67376;PMS7003;54261;46.086;6.588;2023-12-07T00:27:30;0.00;0.00;0.00
67376;PMS7003;54261;46.086;6.588;2023-12-07T00:32:32;1.00;1.00;1.00
67376;PMS7003;54261;46.086;6.588;2023-12-07T00:37:34;1.00;1.00;1.00
67376;PMS7003;54261;46.086;6.588;2023-12-07T00:42:36;0.75;0.75;0.75
67376;PMS7003;54261;46.086;6.588;2023-12-07T00:47:38;1.00;1.00;0.25
67376;PMS7003;54261;46.086;6.588;2023-12-07T00:52:41;1.00;1.00;0.00
67376;PMS7003;54261;46.086;6.588;2023-12-07T00:57:43;1.00;1.00;0.00
67376;PMS7003;54261;46.086;6.588;2023-12-07T01:02:45;0.75;0.75;0.00
67376;PMS7003;54261;46.086;6.588;2023-12-07T01:07:47;0.75;0.75;0.75
67376;PMS7003;54261;46.086;6.588;2023-12-07T01:12:49;3.50;2.00;1.50
67376;PMS7003;54261;46.086;6.588;2023-12-07T01:17:51;2.00;2.00;1.50
67376;PMS7003;54261;46.086;6.588;2023-12-07T01:22:55;1.00;1.00;1.00
67376;PMS7003;54261;46.086;6.588;2023-12-07T01:27:57;3.00;3.00;1.00
67376;PMS7003;54261;46.086;6.588;2023-12-07T01:32:59;2.50;2.50;1.25
67376;PMS7003;54261;46.086;6.588;2023-12-07T01:38:01;1.00;1.00;1.00
67376;PMS7003;54261;46.086;6.588;2023-12-07T01:43:03;1.00;0.00;0.00
67376;PMS7003;54261;46.086;6.588;2023-12-07T01:48:05;0.00;0.00;0.00
67376;PMS7003;54261;46.086;6.588;2023-12-07T01:53:08;0.50;0.50;0.00
67376;PMS7003;54261;46.086;6.588;2023-12-07T01:58:10;0.25;0.00;0.00
67376;PMS7003;54261;46.086;6.588;2023-12-07T02:03:12;0.00;0.00;0.00
67376;PMS7003;54261;46.086;6.588;2023-12-07T02:08:15;0.00;0.00;0.00
67376;PMS7003;54261;46.086;6.588;2023-12-07T02:13:17;0.75;0.00;0.00
67376;PMS7003;54261;46.086;6.588;2023-12-07T02:18:21;1.00;0.00;0.00
67376;PMS7003;54261;46.086;6.588;2023-12-07T02:23:30;0.00;0.00;0.00
67376;PMS7003;54261;46.086;6.588;2023-12-07T02:28:47;0.00;0.00;0.00
67376;PMS7003;54261;46.086;6.588;2023-12-07T02:33:49;0.00;0.00;0.00
67376;PMS7003;54261;46.086;6.588;2023-12-07T02:38:52;0.00;0.00;0.00
67376;PMS7003;54261;46.086;6.588;2023-12-07T02:43:58;0.00;0.00;0.00
67376;PMS7003;54261;46.086;6.588;2023-12-07T02:49:01;0.00;0.00;0.00
67376;PMS7003;54261;46.086;6.588;2023-12-07T02:54:03;1.00;1.00;0.00
67376;PMS7003;54261;46.086;6.588;2023-12-07T02:59:05;0.00;0.00;0.00
67376;PMS7003;54261;46.086;6.588;2023-12-07T03:04:07;0.00;0.00;0.00
67376;PMS7003;54261;46.086;6.588;2023-12-07T03:09:09;0.00;0.00;0.00
67376;PMS7003;54261;46.086;6.588;2023-12-07T03:14:10;0.00;0.00;0.00
67376;PMS7003;54261;46.086;6.588;2023-12-07T03:19:12;0.75;0.75;0.00
67376;PMS7003;54261;46.086;6.588;2023-12-07T03:24:14;0.00;0.00;0.00
67376;PMS7003;54261;46.086;6.588;2023-12-07T03:29:16;1.00;1.00;1.00
67376;PMS7003;54261;46.086;6.588;2023-12-07T03:34:18;0.00;0.00;0.00
67376;PMS7003;54261;46.086;6.588;2023-12-07T03:39:20;0.50;0.50;0.00
67376;PMS7003;54261;46.086;6.588;2023-12-07T03:44:27;0.00;0.00;0.00
67376;PMS7003;54261;46.086;6.588;2023-12-07T03:49:28;0.00;0.00;0.00
67376;PMS7003;54261;46.086;6.588;2023-12-07T03:54:30;0.00;0.00;0.00
67376;PMS7003;54261;46.086;6.588;2023-12-07T03:59:32;0.25;0.25;0.00
67376;PMS7003;54261;46.086;6.588;2023-12-07T04:04:38;0.00;0.00;0.00
67376;PMS7003;54261;46.086;6.588;2023-12-07T04:09:40;0.00;0.00;0.00
67376;PMS7003;54261;46.086;6.588;2023-12-07T04:14:42;1.00;1.00;0.50
67376;PMS7003;54261;46.086;6.588;2023-12-07T04:19:43;0.00;0.00;0.00
67376;PMS7003;54261;46.086;6.588;2023-12-07T04:24:45;0.00;0.00;0.00
67376;PMS7003;54261;46.086;6.588;2023-12-07T04:29:47;1.00;0.00;0.00
67376;PMS7003;54261;46.086;6.588;2023-12-07T04:34:50;0.00;0.00;0.00
67376;PMS7003;54261;46.086;6.588;2023-12-07T04:39:52;0.00;0.00;0.00
67376;PMS7003;54261;46.086;6.588;2023-12-07T04:44:54;0.00;0.00;0.00
67376;PMS7003;54261;46.086;6.588;2023-12-07T04:49:55;1.00;0.00;0.00
67376;PMS7003;54261;46.086;6.588;2023-12-07T04:54:57;0.75;0.75;0.00
67376;PMS7003;54261;46.086;6.588;2023-12-07T04:59:59;2.50;2.00;1.00
67376;PMS7003;54261;46.086;6.588;2023-12-07T05:05:02;5.25;3.75;2.00
67376;PMS7003;54261;46.086;6.588;2023-12-07T05:10:04;22.25;18.00;9.25
67376;PMS7003;54261;46.086;6.588;2023-12-07T05:15:07;2.00;2.00;2.00
67376;PMS7003;54261;46.086;6.588;2023-12-07T05:20:10;14.25;10.00;8.00
67376;PMS7003;54261;46.086;6.588;2023-12-07T05:25:14;5.00;5.00;3.50
67376;PMS7003;54261;46.086;6.588;2023-12-07T05:30:16;7.75;7.00;4.25
67376;PMS7003;54261;46.086;6.588;2023-12-07T05:35:17;10.00;7.00;6.50
67376;PMS7003;54261;46.086;6.588;2023-12-07T05:40:19;22.00;20.50;16.50
67376;PMS7003;54261;46.086;6.588;2023-12-07T05:45:21;10.50;9.00;5.50
67376;PMS7003;54261;46.086;6.588;2023-12-07T05:50:23;16.75;13.00;8.00
67376;PMS7003;54261;46.086;6.588;2023-12-07T05:55:25;11.00;10.00;7.00
67376;PMS7003;54261;46.086;6.588;2023-12-07T06:00:27;2.00;1.00;0.00
67376;PMS7003;54261;46.086;6.588;2023-12-07T06:05:29;5.25;2.50;1.50
67376;PMS7003;54261;46.086;6.588;2023-12-07T06:10:31;16.50;11.00;7.75
67376;PMS7003;54261;46.086;6.588;2023-12-07T06:15:34;0.00;0.00;0.00
67376;PMS7003;54261;46.086;6.588;2023-12-07T06:20:36;16.25;12.25;11.75
67376;PMS7003;54261;46.086;6.588;2023-12-07T06:25:38;9.00;8.00;5.00
67376;PMS7003;54261;46.086;6.588;2023-12-07T06:30:41;4.75;4.00;2.00
67376;PMS7003;54261;46.086;6.588;2023-12-07T06:35:43;0.00;0.00;0.00
67376;PMS7003;54261;46.086;6.588;2023-12-07T06:40:45;0.00;0.00;0.00
67376;PMS7003;54261;46.086;6.588;2023-12-07T06:45:47;0.00;0.00;0.00
67376;PMS7003;54261;46.086;6.588;2023-12-07T06:50:48;6.50;1.75;0.75
67376;PMS7003;54261;46.086;6.588;2023-12-07T06:55:50;8.75;6.00;4.00
67376;PMS7003;54261;46.086;6.588;2023-12-07T07:00:53;6.75;6.75;4.00
67376;PMS7003;54261;46.086;6.588;2023-12-07T07:05:55;10.75;9.75;6.50
67376;PMS7003;54261;46.086;6.588;2023-12-07T07:10:57;10.25;10.25;5.25
67376;PMS7003;54261;46.086;6.588;2023-12-07T07:15:59;19.50;16.50;7.25
67376;PMS7003;54261;46.086;6.588;2023-12-07T07:21:01;1.75;1.75;1.00
67376;PMS7003;54261;46.086;6.588;2023-12-07T07:26:02;2.25;2.25;0.75
67376;PMS7003;54261;46.086;6.588;2023-12-07T07:31:05;10.50;8.75;7.25
67376;PMS7003;54261;46.086;6.588;2023-12-07T07:36:07;1.00;0.50;0.25
67376;PMS7003;54261;46.086;6.588;2023-12-07T07:41:09;4.25;4.00;2.00
67376;PMS7003;54261;46.086;6.588;2023-12-07T07:46:12;1.00;0.25;0.25
67376;PMS7003;54261;46.086;6.588;2023-12-07T07:51:15;1.00;1.00;0.00
67376;PMS7003;54261;46.086;6.588;2023-12-07T07:56:17;0.25;0.25;0.00
67376;PMS7003;54261;46.086;6.588;2023-12-07T08:01:19;7.00;5.00;4.00
67376;PMS7003;54261;46.086;6.588;2023-12-07T08:06:21;9.50;9.50;7.75
67376;PMS7003;54261;46.086;6.588;2023-12-07T08:11:23;12.50;12.50;8.00
67376;PMS7003;54261;46.086;6.588;2023-12-07T08:16:25;2.00;2.00;2.00
67376;PMS7003;54261;46.086;6.588;2023-12-07T08:21:28;3.00;3.00;1.00
67376;PMS7003;54261;46.086;6.588;2023-12-07T08:26:32;4.00;1.00;0.25
67376;PMS7003;54261;46.086;6.588;2023-12-07T08:31:34;0.00;0.00;0.00
67376;PMS7003;54261;46.086;6.588;2023-12-07T08:36:36;0.25;0.00;0.00
67376;PMS7003;54261;46.086;6.588;2023-12-07T08:41:38;0.00;0.00;0.00
67376;PMS7003;54261;46.086;6.588;2023-12-07T08:46:40;0.00;0.00;0.00
67376;PMS7003;54261;46.086;6.588;2023-12-07T08:51:43;4.50;1.75;1.00
67376;PMS7003;54261;46.086;6.588;2023-12-07T08:57:05;2.50;2.50;2.00
67376;PMS7003;54261;46.086;6.588;2023-12-07T09:02:07;0.25;0.25;0.00
67376;PMS7003;54261;46.086;6.588;2023-12-07T09:07:09;4.00;4.00;2.00
67376;PMS7003;54261;46.086;6.588;2023-12-07T09:12:13;0.50;0.50;0.00
67376;PMS7003;54261;46.086;6.588;2023-12-07T09:17:20;0.75;0.75;0.50
67376;PMS7003;54261;46.086;6.588;2023-12-07T09:22:22;1.00;1.00;0.00
67376;PMS7003;54261;46.086;6.588;2023-12-07T09:27:36;0.00;0.00;0.00
67376;PMS7003;54261;46.086;6.588;2023-12-07T09:32:41;1.75;1.75;1.00
67376;PMS7003;54261;46.086;6.588;2023-12-07T09:37:46;1.00;1.00;1.00
67376;PMS7003;54261;46.086;6.588;2023-12-07T09:42:49;1.25;1.25;1.00
67376;PMS7003;54261;46.086;6.588;2023-12-07T09:47:52;4.00;2.50;2.00
67376;PMS7003;54261;46.086;6.588;2023-12-07T09:52:56;6.00;4.00;2.00
67376;PMS7003;54261;46.086;6.588;2023-12-07T09:58:09;4.75;3.00;2.00
67376;PMS7003;54261;46.086;6.588;2023-12-07T10:03:19;1.00;1.00;1.00
67376;PMS7003;54261;46.086;6.588;2023-12-07T10:08:32;5.00;4.00;2.00
67376;PMS7003;54261;46.086;6.588;2023-12-07T10:13:37;4.50;2.00;2.00
67376;PMS7003;54261;46.086;6.588;2023-12-07T10:18:40;0.50;0.50;0.00
67376;PMS7003;54261;46.086;6.588;2023-12-07T10:23:45;0.25;0.25;0.00
67376;PMS7003;54261;46.086;6.588;2023-12-07T10:28:50;0.00;0.00;0.00
67376;PMS7003;54261;46.086;6.588;2023-12-07T10:33:56;1.00;0.00;0.00
67376;PMS7003;54261;46.086;6.588;2023-12-07T10:38:58;1.50;1.50;1.50
67376;PMS7003;54261;46.086;6.588;2023-12-07T10:44:01;5.00;3.25;2.25
67376;PMS7003;54261;46.086;6.588;2023-12-07T10:49:05;2.00;2.00;1.75
67376;PMS7003;54261;46.086;6.588;2023-12-07T10:54:22;3.50;2.00;2.00
67376;PMS7003;54261;46.086;6.588;2023-12-07T10:59:27;3.00;3.00;3.00
67376;PMS7003;54261;46.086;6.588;2023-12-07T11:04:35;0.00;0.00;0.00
67376;PMS7003;54261;46.086;6.588;2023-12-07T11:09:39;1.00;1.00;1.00
67376;PMS7003;54261;46.086;6.588;2023-12-07T11:14:49;0.25;0.00;0.00
67376;PMS7003;54261;46.086;6.588;2023-12-07T11:19:51;1.75;1.75;1.00
67376;PMS7003;54261;46.086;6.588;2023-12-07T11:24:54;1.00;1.00;1.00
67376;PMS7003;54261;46.086;6.588;2023-12-07T11:29:59;3.50;1.50;1.25
67376;PMS7003;54261;46.086;6.588;2023-12-07T11:35:05;5.00;4.00;3.00
67376;PMS7003;54261;46.086;6.588;2023-12-07T11:40:07;0.25;0.00;0.00
67376;PMS7003;54261;46.086;6.588;2023-12-07T11:45:09;1.50;1.50;1.00
67376;PMS7003;54261;46.086;6.588;2023-12-07T11:50:11;2.00;2.00;1.25
67376;PMS7003;54261;46.086;6.588;2023-12-07T11:55:13;0.00;0.00;0.00
67376;PMS7003;54261;46.086;6.588;2023-12-07T12:00:15;0.00;0.00;0.00
67376;PMS7003;54261;46.086;6.588;2023-12-07T12:05:18;1.00;1.00;1.00
67376;PMS7003;54261;46.086;6.588;2023-12-07T12:10:20;8.75;6.50;5.75
67376;PMS7003;54261;46.086;6.588;2023-12-07T12:15:25;3.25;3.25;3.00
67376;PMS7003;54261;46.086;6.588;2023-12-07T12:20:27;2.00;2.00;2.00
67376;PMS7003;54261;46.086;6.588;2023-12-07T12:25:30;4.75;3.00;2.25
67376;PMS7003;54261;46.086;6.588;2023-12-07T12:30:33;4.50;3.75;2.00
67376;PMS7003;54261;46.086;6.588;2023-12-07T12:35:35;4.00;4.00;2.00
67376;PMS7003;54261;46.086;6.588;2023-12-07T12:40:37;2.50;1.25;1.00
67376;PMS7003;54261;46.086;6.588;2023-12-07T12:45:39;1.75;1.75;1.25
67376;PMS7003;54261;46.086;6.588;2023-12-07T12:50:41;2.50;2.50;2.00
67376;PMS7003;54261;46.086;6.588;2023-12-07T12:55:43;2.50;1.00;0.25
67376;PMS7003;54261;46.086;6.588;2023-12-07T13:00:48;1.00;1.00;1.00
67376;PMS7003;54261;46.086;6.588;2023-12-07T13:05:50;3.00;2.00;0.25
67376;PMS7003;54261;46.086;6.588;2023-12-07T13:10:52;1.00;1.00;1.00
67376;PMS7003;54261;46.086;6.588;2023-12-07T13:15:54;2.00;1.00;1.00
67376;PMS7003;54261;46.086;6.588;2023-12-07T13:20:56;1.50;1.00;1.00
67376;PMS7003;54261;46.086;6.588;2023-12-07T13:25:58;4.75;3.25;2.00
67376;PMS7003;54261;46.086;6.588;2023-12-07T13:31:00;3.50;3.50;2.50
67376;PMS7003;54261;46.086;6.588;2023-12-07T13:36:02;9.50;6.00;5.00
67376;PMS7003;54261;46.086;6.588;2023-12-07T13:41:08;16.00;12.25;9.75
67376;PMS7003;54261;46.086;6.588;2023-12-07T13:46:09;8.50;8.00;6.50
67376;PMS7003;54261;46.086;6.588;2023-12-07T13:51:12;7.00;7.00;5.00
67376;PMS7003;54261;46.086;6.588;2023-12-07T13:56:14;5.75;4.50;2.75
67376;PMS7003;54261;46.086;6.588;2023-12-07T14:01:19;6.25;5.50;3.25
67376;PMS7003;54261;46.086;6.588;2023-12-07T14:06:21;2.75;1.50;1.00
67376;PMS7003;54261;46.086;6.588;2023-12-07T14:11:29;6.00;6.00;4.00
67376;PMS7003;54261;46.086;6.588;2023-12-07T14:16:31;4.75;3.75;2.00
67376;PMS7003;54261;46.086;6.588;2023-12-07T14:21:53;8.25;6.00;5.00
67376;PMS7003;54261;46.086;6.588;2023-12-07T14:26:56;5.00;4.50;2.75
67376;PMS7003;54261;46.086;6.588;2023-12-07T14:31:59;5.00;5.00;3.50
67376;PMS7003;54261;46.086;6.588;2023-12-07T14:37:05;11.25;7.25;6.00
67376;PMS7003;54261;46.086;6.588;2023-12-07T14:42:08;7.25;6.00;5.25
67376;PMS7003;54261;46.086;6.588;2023-12-07T14:47:10;10.00;6.50;3.75
67376;PMS7003;54261;46.086;6.588;2023-12-07T14:52:12;8.00;8.00;5.50
67376;PMS7003;54261;46.086;6.588;2023-12-07T14:57:14;9.50;8.25;6.00
67376;PMS7003;54261;46.086;6.588;2023-12-07T15:02:16;9.50;9.00;6.00
67376;PMS7003;54261;46.086;6.588;2023-12-07T15:07:18;10.50;8.75;6.00
67376;PMS7003;54261;46.086;6.588;2023-12-07T15:12:20;4.25;4.25;3.00
67376;PMS7003;54261;46.086;6.588;2023-12-07T15:17:22;6.00;6.00;3.25
67376;PMS7003;54261;46.086;6.588;2023-12-07T15:22:24;11.75;11.75;8.75
67376;PMS7003;54261;46.086;6.588;2023-12-07T15:27:26;9.00;6.00;5.25
67376;PMS7003;54261;46.086;6.588;2023-12-07T15:32:28;6.00;5.50;4.00
67376;PMS7003;54261;46.086;6.588;2023-12-07T15:37:30;7.25;7.00;5.00
67376;PMS7003;54261;46.086;6.588;2023-12-07T15:42:32;4.75;4.75;3.75
67376;PMS7003;54261;46.086;6.588;2023-12-07T15:47:34;8.00;8.00;6.00
67376;PMS7003;54261;46.086;6.588;2023-12-07T15:52:36;7.75;7.75;7.00
67376;PMS7003;54261;46.086;6.588;2023-12-07T15:57:38;8.50;8.25;6.00
67376;PMS7003;54261;46.086;6.588;2023-12-07T16:02:40;6.00;6.00;5.25
67376;PMS7003;54261;46.086;6.588;2023-12-07T16:07:42;5.00;5.00;5.00
67376;PMS7003;54261;46.086;6.588;2023-12-07T16:12:44;7.50;7.00;6.25
67376;PMS7003;54261;46.086;6.588;2023-12-07T16:17:46;4.50;4.50;4.00
67376;PMS7003;54261;46.086;6.588;2023-12-07T16:22:48;4.25;4.25;3.00
67376;PMS7003;54261;46.086;6.588;2023-12-07T16:27:50;2.50;2.50;2.50
67376;PMS7003;54261;46.086;6.588;2023-12-07T16:32:52;2.75;2.00;1.50
67376;PMS7003;54261;46.086;6.588;2023-12-07T16:37:54;4.50;4.50;2.00
67376;PMS7003;54261;46.086;6.588;2023-12-07T16:42:56;4.50;4.00;3.00
67376;PMS7003;54261;46.086;6.588;2023-12-07T16:47:59;2.25;2.25;1.00
67376;PMS7003;54261;46.086;6.588;2023-12-07T16:53:01;1.00;1.00;1.00
67376;PMS7003;54261;46.086;6.588;2023-12-07T16:58:03;5.75;5.75;5.00
67376;PMS7003;54261;46.086;6.588;2023-12-07T17:03:05;15.50;14.00;11.50
67376;PMS7003;54261;46.086;6.588;2023-12-07T17:08:07;10.00;8.75;6.00
67376;PMS7003;54261;46.086;6.588;2023-12-07T17:13:09;34.50;34.00;25.00
67376;PMS7003;54261;46.086;6.588;2023-12-07T17:18:13;31.50;27.50;20.75
67376;PMS7003;54261;46.086;6.588;2023-12-07T17:23:15;6.25;5.00;3.00
67376;PMS7003;54261;46.086;6.588;2023-12-07T17:28:17;19.25;18.25;12.75
67376;PMS7003;54261;46.086;6.588;2023-12-07T17:33:20;11.50;11.25;8.25
67376;PMS7003;54261;46.086;6.588;2023-12-07T17:38:22;6.50;6.50;3.75
67376;PMS7003;54261;46.086;6.588;2023-12-07T17:43:24;4.75;3.00;2.50
67376;PMS7003;54261;46.086;6.588;2023-12-07T17:48:26;4.25;2.75;2.25
67376;PMS7003;54261;46.086;6.588;2023-12-07T17:53:28;6.00;5.00;3.00
67376;PMS7003;54261;46.086;6.588;2023-12-07T17:58:31;2.00;2.00;2.00
67376;PMS7003;54261;46.086;6.588;2023-12-07T18:03:32;27.25;26.50;21.00
67376;PMS7003;54261;46.086;6.588;2023-12-07T18:08:36;4.50;4.50;2.75
67376;PMS7003;54261;46.086;6.588;2023-12-07T18:13:38;1.25;1.00;1.00
67376;PMS7003;54261;46.086;6.588;2023-12-07T18:18:40;7.25;6.00;5.50
67376;PMS7003;54261;46.086;6.588;2023-12-07T18:23:42;5.50;5.50;3.00
67376;PMS7003;54261;46.086;6.588;2023-12-07T18:28:46;2.50;1.50;1.00
67376;PMS7003;54261;46.086;6.588;2023-12-07T18:33:48;1.00;1.00;1.00
67376;PMS7003;54261;46.086;6.588;2023-12-07T18:38:51;1.00;0.75;0.00
67376;PMS7003;54261;46.086;6.588;2023-12-07T18:43:53;2.00;2.00;1.00
67376;PMS7003;54261;46.086;6.588;2023-12-07T18:48:55;9.00;9.00;7.25
67376;PMS7003;54261;46.086;6.588;2023-12-07T18:53:57;13.50;8.75;7.75
67376;PMS7003;54261;46.086;6.588;2023-12-07T18:58:59;9.00;6.50;6.00
67376;PMS7003;54261;46.086;6.588;2023-12-07T19:04:01;12.00;11.25;9.25
67376;PMS7003;54261;46.086;6.588;2023-12-07T19:09:04;23.00;20.75;16.75
67376;PMS7003;54261;46.086;6.588;2023-12-07T19:14:08;9.00;9.00;7.00
67376;PMS7003;54261;46.086;6.588;2023-12-07T19:19:09;9.00;9.00;6.25
67376;PMS7003;54261;46.086;6.588;2023-12-07T19:24:12;6.25;5.75;5.00
67376;PMS7003;54261;46.086;6.588;2023-12-07T19:29:14;10.00;9.75;7.50
67376;PMS7003;54261;46.086;6.588;2023-12-07T19:34:16;12.75;10.75;9.00
67376;PMS7003;54261;46.086;6.588;2023-12-07T19:39:20;13.00;10.25;9.25
67376;PMS7003;54261;46.086;6.588;2023-12-07T19:44:22;7.25;7.25;6.00
67376;PMS7003;54261;46.086;6.588;2023-12-07T19:49:24;1.25;1.25;1.00
67376;PMS7003;54261;46.086;6.588;2023-12-07T19:54:26;2.00;2.00;1.50
67376;PMS7003;54261;46.086;6.588;2023-12-07T19:59:28;5.50;5.00;3.75
67376;PMS7003;54261;46.086;6.588;2023-12-07T20:04:30;5.75;5.25;3.00
67376;PMS7003;54261;46.086;6.588;2023-12-07T20:09:34;3.25;2.00;1.50
67376;PMS7003;54261;46.086;6.588;2023-12-07T20:14:36;5.75;5.75;4.00
67376;PMS7003;54261;46.086;6.588;2023-12-07T20:19:38;12.75;12.75;9.75
67376;PMS7003;54261;46.086;6.588;2023-12-07T20:24:40;13.00;11.50;10.00
67376;PMS7003;54261;46.086;6.588;2023-12-07T20:29:42;13.50;12.25;10.25
67376;PMS7003;54261;46.086;6.588;2023-12-07T20:34:44;13.00;11.00;8.50
67376;PMS7003;54261;46.086;6.588;2023-12-07T20:39:46;7.75;7.75;7.00
67376;PMS7003;54261;46.086;6.588;2023-12-07T20:44:48;15.25;14.75;11.25
67376;PMS7003;54261;46.086;6.588;2023-12-07T20:49:50;10.25;9.00;7.25
67376;PMS7003;54261;46.086;6.588;2023-12-07T20:54:52;9.50;7.00;6.50
67376;PMS7003;54261;46.086;6.588;2023-12-07T20:59:54;13.50;13.50;10.50
67376;PMS7003;54261;46.086;6.588;2023-12-07T21:04:56;35.50;32.50;24.25
67376;PMS7003;54261;46.086;6.588;2023-12-07T21:09:58;39.50;34.75;26.25
67376;PMS7003;54261;46.086;6.588;2023-12-07T21:15:00;37.25;30.00;20.75
67376;PMS7003;54261;46.086;6.588;2023-12-07T21:20:05;27.25;25.75;19.25
67376;PMS7003;54261;46.086;6.588;2023-12-07T21:25:07;19.50;18.00;14.00
67376;PMS7003;54261;46.086;6.588;2023-12-07T21:30:09;27.00;27.00;20.00
67376;PMS7003;54261;46.086;6.588;2023-12-07T21:35:12;25.25;21.25;16.50
67376;PMS7003;54261;46.086;6.588;2023-12-07T21:40:15;82.00;63.75;43.00
67376;PMS7003;54261;46.086;6.588;2023-12-07T21:45:16;24.50;22.75;14.00
67376;PMS7003;54261;46.086;6.588;2023-12-07T21:50:19;62.25;51.50;37.00
67376;PMS7003;54261;46.086;6.588;2023-12-07T21:55:21;49.00;39.75;28.75
67376;PMS7003;54261;46.086;6.588;2023-12-07T22:00:23;21.75;21.25;14.00
67376;PMS7003;54261;46.086;6.588;2023-12-07T22:05:25;24.50;17.25;12.25
67376;PMS7003;54261;46.086;6.588;2023-12-07T22:10:27;16.00;15.50;12.25
67376;PMS7003;54261;46.086;6.588;2023-12-07T22:15:30;11.50;9.50;9.00
67376;PMS7003;54261;46.086;6.588;2023-12-07T22:20:32;18.25;15.00;9.75
67376;PMS7003;54261;46.086;6.588;2023-12-07T22:25:34;18.50;13.75;10.50
67376;PMS7003;54261;46.086;6.588;2023-12-07T22:30:36;10.75;9.00;7.75
67376;PMS7003;54261;46.086;6.588;2023-12-07T22:35:38;11.00;8.50;6.50
67376;PMS7003;54261;46.086;6.588;2023-12-07T22:40:40;16.00;15.00;10.75
67376;PMS7003;54261;46.086;6.588;2023-12-07T22:45:42;11.25;10.50;7.50
67376;PMS7003;54261;46.086;6.588;2023-12-07T22:50:44;11.50;10.75;7.25
67376;PMS7003;54261;46.086;6.588;2023-12-07T22:55:46;10.25;8.75;6.00
67376;PMS7003;54261;46.086;6.588;2023-12-07T23:00:48;11.00;10.50;9.50
67376;PMS7003;54261;46.086;6.588;2023-12-07T23:05:50;4.00;4.00;2.00
67376;PMS7003;54261;46.086;6.588;2023-12-07T23:10:52;12.00;10.50;8.25
67376;PMS7003;54261;46.086;6.588;2023-12-07T23:15:54;13.00;12.25;9.50
67376;PMS7003;54261;46.086;6.588;2023-12-07T23:20:56;13.75;11.00;10.75
67376;PMS7003;54261;46.086;6.588;2023-12-07T23:25:58;17.75;17.00;11.00
67376;PMS7003;54261;46.086;6.588;2023-12-07T23:31:00;9.75;9.75;8.25
67376;PMS7003;54261;46.086;6.588;2023-12-07T23:36:02;16.50;15.75;13.75
67376;PMS7003;54261;46.086;6.588;2023-12-07T23:41:05;11.75;11.75;8.00
67376;PMS7003;54261;46.086;6.588;2023-12-07T23:46:08;15.25;15.25;10.75
67376;PMS7003;54261;46.086;6.588;2023-12-07T23:51:10;18.25;17.50;14.00
67376;PMS7003;54261;46.086;6.588;2023-12-07T23:56:17;18.75;17.25;11.00
